createdAt,value
2017-12-05T00:00:55.305Z,12
2017-12-05T00:10:55.285Z,13
2017-12-05T00:20:55.279Z,14
2017-12-05T00:30:55.393Z,15
2017-12-05T00:40:55.263Z,17
2017-12-05T00:50:55.318Z,16
2017-12-05T01:00:55.270Z,17
2017-12-05T01:10:55.310Z,18
2017-12-05T01:20:55.295Z,20
2017-12-05T01:30:55.321Z,20
2017-12-05T01:40:55.311Z,21
2017-12-05T01:50:55.334Z,21
2017-12-05T02:00:55.317Z,24
2017-12-05T02:10:55.404Z,25
2017-12-05T02:20:55.356Z,24
2017-12-05T02:30:55.296Z,26
2017-12-05T02:40:55.387Z,30
2017-12-05T02:50:55.362Z,24
2017-12-05T03:00:56.427Z,26
2017-12-05T03:10:55.360Z,26
2017-12-05T03:20:55.375Z,23
2017-12-05T03:30:55.414Z,25
2017-12-05T03:40:55.450Z,28
2017-12-05T03:50:55.411Z,29
2017-12-05T04:00:55.507Z,26
2017-12-05T04:10:55.440Z,28
2017-12-05T04:20:55.497Z,29
2017-12-05T04:30:55.452Z,29
2017-12-05T04:40:55.411Z,31
2017-12-05T04:50:55.493Z,35
2017-12-05T05:00:55.546Z,35
2017-12-05T05:10:55.388Z,38
2017-12-05T05:20:55.476Z,40
2017-12-05T05:30:55.560Z,41
2017-12-05T05:40:55.459Z,43
2017-12-05T05:50:55.566Z,43
2017-12-05T06:00:55.543Z,46
2017-12-05T06:10:55.627Z,45
2017-12-05T06:20:55.592Z,42
2017-12-05T06:30:55.673Z,43
2017-12-05T06:40:55.594Z,43
2017-12-05T06:50:55.533Z,44
2017-12-05T07:00:55.652Z,42
2017-12-05T07:10:55.476Z,40
2017-12-05T07:20:55.601Z,40
2017-12-05T07:30:55.560Z,42
2017-12-05T07:40:55.691Z,43
2017-12-05T07:50:55.584Z,39
2017-12-05T08:00:55.687Z,41
2017-12-05T08:10:55.649Z,39
2017-12-05T08:21:19.479Z,40
2017-12-05T08:30:55.735Z,37
2017-12-05T08:40:55.649Z,39
2017-12-05T08:50:55.737Z,34
2017-12-05T09:00:55.658Z,35
2017-12-05T09:10:55.616Z,38
2017-12-05T09:20:55.636Z,34
2017-12-05T09:30:56.882Z,39
2017-12-05T09:40:55.751Z,35
2017-12-05T10:00:56.009Z,34
2017-12-05T10:10:55.653Z,35
2017-12-05T10:20:55.763Z,34
2017-12-05T10:30:55.713Z,34
2017-12-05T10:40:55.847Z,35
2017-12-05T10:50:55.779Z,33
2017-12-05T11:00:56.222Z,31
2017-12-05T11:10:55.924Z,33
2017-12-05T11:20:55.737Z,32
2017-12-05T11:30:55.754Z,30
2017-12-05T11:40:55.709Z,31
2017-12-05T11:50:55.859Z,29
2017-12-05T12:00:55.975Z,28
2017-12-05T12:10:55.820Z,28
2017-12-05T12:20:56.842Z,27
2017-12-05T12:30:55.780Z,27
2017-12-05T12:40:55.994Z,23
2017-12-05T12:50:55.960Z,24
2017-12-05T13:00:55.868Z,24
2017-12-05T13:10:55.887Z,22
2017-12-05T13:20:55.904Z,24
2017-12-05T13:30:55.946Z,22
2017-12-05T13:40:56.895Z,22
2017-12-05T13:50:55.841Z,20
2017-12-05T14:00:55.946Z,19
2017-12-05T14:10:55.913Z,20
2017-12-05T14:20:56.138Z,19
2017-12-05T14:30:55.922Z,20
2017-12-05T14:40:55.963Z,21
2017-12-05T14:50:56.263Z,20
2017-12-05T15:00:56.110Z,24
2017-12-05T15:10:56.143Z,20
2017-12-05T15:20:55.948Z,20
2017-12-05T15:30:57.131Z,20
2017-12-05T15:40:56.200Z,19
2017-12-05T15:50:58.022Z,18
2017-12-05T16:00:56.484Z,18
2017-12-05T16:10:56.279Z,20
2017-12-05T16:20:57.891Z,19
2017-12-05T16:30:56.691Z,17
2017-12-05T16:40:56.222Z,18
2017-12-05T16:50:57.328Z,17
2017-12-05T17:00:58.255Z,18
2017-12-05T17:10:56.947Z,17
2017-12-05T17:20:56.752Z,18
2017-12-05T17:30:56.824Z,17
2017-12-05T17:40:56.545Z,18
2017-12-05T17:50:56.276Z,17
2017-12-05T18:00:57.228Z,19
2017-12-05T18:10:56.759Z,18
2017-12-05T18:20:56.376Z,17
2017-12-05T18:30:56.441Z,19
2017-12-05T18:40:56.829Z,17
2017-12-05T18:50:57.442Z,19
2017-12-05T19:00:57.449Z,22
2017-12-05T19:10:57.238Z,17
2017-12-05T19:20:57.062Z,17
2017-12-05T19:30:59.186Z,19
2017-12-05T19:40:58.134Z,17
2017-12-05T19:50:57.675Z,17
2017-12-05T20:00:58.192Z,17
2017-12-05T20:10:57.771Z,16
2017-12-05T20:20:57.872Z,19
2017-12-05T20:30:58.113Z,16
2017-12-05T20:41:01.333Z,17
2017-12-05T20:50:58.024Z,16
2017-12-05T21:00:57.926Z,16
2017-12-05T21:10:57.703Z,17
2017-12-05T21:20:58.977Z,16
2017-12-05T21:31:00.822Z,16
2017-12-05T21:40:58.556Z,15
2017-12-05T21:50:58.446Z,14
2017-12-05T22:00:58.929Z,14
2017-12-05T22:10:58.045Z,15
2017-12-05T22:20:56.988Z,15
2017-12-05T22:30:57.210Z,16
2017-12-05T22:40:56.632Z,16
2017-12-05T22:50:56.388Z,15
2017-12-05T23:00:56.564Z,17
2017-12-05T23:10:56.388Z,17
2017-12-05T23:20:56.526Z,17
2017-12-05T23:30:56.443Z,17
2017-12-05T23:40:56.456Z,15
2017-12-05T23:50:56.510Z,17
